Nearby METAR Reports

 

KPIA - Peoria, Illinois, USA
Distance from station: SSW 11mi, 18km
Updated: 02/20/2018 10:54pm
Light freezing, Rain, Mist, Overcast
Light freezing, Rain, Mist, Overcast
 Wind from NW
Wind: NW 9 mph , 15 km/h, Gust: 18 mph , 30 km/h
Temperature: 30°F , -1°C
Wind Chill: 22°F , -6°C
Dew Point: 27°F , -3°C
Humidity: 86%
Barometer: 30.23 inHg , 1023.7 hPa
Summary: Light freezing, Rain, Mist
Clouds: Overcast
Visibility: 5 miles , 8 km
Cloud details: Overcast 1400 ft
2018/02/21 04:54 KPIA 210454Z 32008G16KT 5SM -FZRA BR OVC014 M01/M03 A3023 RMK AO2 UPB05E12FZRAE05B12 SLP237 I1003 T10111028 PNO
KC75 - Lacon, Illinois, USA
Distance from station: NE 18mi, 30km
Updated: 02/20/2018 11:15pm
Overcast
Overcast
 Wind from NNW
Wind: NNW 7 mph , 11 km/h
Temperature: 28°F , -2°C
Wind Chill: 21°F , -6°C
Dew Point: 27°F , -3°C
Humidity: 93%
Barometer: 30.22 inHg , 1023.4 hPa
Clouds: Overcast
Visibility: 5 miles , 8 km
Cloud details: Mostly cloudy 1700 ft
Mostly cloudy 4000 ft
Overcast 5000 ft
2018/02/21 05:15 KC75 210515Z AUTO 33006KT 5SM UP BKN017 BKN040 OVC050 M02/M03 A3022 RMK AO2 T10161031
 
KGBG - Galesburg, Illinois, USA
Distance from station: W 43mi, 69km
Updated: 02/20/2018 11:15pm
Partly cloudy
Partly cloudy
 Wind from NW
Wind: NW 15 mph , 24 km/h
Temperature: 27°F , -3°C
Wind Chill: 15°F , -9°C
Dew Point: 23°F , -5°C
Humidity: 86%
Barometer: 30.25 inHg , 1024.4 hPa
Clouds: Partly cloudy
Visibility: 10 miles , 16 km
Cloud details: Partly cloudy 1700 ft
Partly cloudy 12000 ft
2018/02/21 05:15 KGBG 210515Z AUTO 32013KT 10SM SCT017 SCT120 M03/M05 A3025 RMK AO2 T10331051
KBMI - Bloomington/Norm, Illinois, USA
Distance from station: ESE 44mi, 71km
Updated: 02/20/2018 11:15pm
Light snow, Mist, Overcast
Light snow, Mist, Overcast
 Wind from NNW
Wind: NNW 18 mph , 30 km/h
Temperature: 30°F , -1°C
Wind Chill: 18°F , -8°C
Dew Point: 28°F , -2°C
Humidity: 93%
Barometer: 30.17 inHg , 1021.7 hPa
Summary: Light snow, Mist
Clouds: Overcast
Visibility: 4 miles , 6 km
Cloud details: Partly cloudy 700 ft
Mostly cloudy 1100 ft
Overcast 2300 ft
2018/02/21 05:15 KBMI 210515Z AUTO 34016KT 4SM -SN BR SCT007 BKN011 OVC023 M01/M02 A3017 RMK AO2 P0005 FZRANO $
 
KVYS - Peru, Illinois, USA
Distance from station: NNE 44mi, 71km
Updated: 02/20/2018 11:15pm
Light rain, Overcast
Light rain, Overcast
 Wind from calm
Wind: Calm
Temperature: 30°F , -1°C
Dew Point: 27°F , -3°C
Humidity: 86%
Barometer: 30.22 inHg , 1023.4 hPa
Summary: Light rain
Clouds: Overcast
Visibility: 10 miles , 16 km
Cloud details: Mostly cloudy 1600 ft
Mostly cloudy 4400 ft
Overcast 5500 ft
2018/02/21 05:15 KVYS 210515Z AUTO 00000KT 10SM -RA BKN016 BKN044 OVC055 M01/M03 A3022 RMK AO2 T10151035
KAAA - Lincoln, Illinois, USA
Distance from station: SSE 48mi, 77km
Updated: 02/20/2018 11:15pm
Rain, Overcast
Rain, Overcast
 Wind from NNW
Wind: NNW 7 mph , 11 km/h
Temperature: 32°F , 0°C
Wind Chill: 25°F , -4°C
Dew Point: 32°F , 0°C
Humidity: 100%
Barometer: 30.21 inHg , 1023 hPa
Summary: Rain
Clouds: Overcast
Visibility: 7 miles , 11 km
Cloud details: Partly cloudy 800 ft
Overcast 1200 ft
2018/02/21 05:15 KAAA 210515Z AUTO 33006KT 7SM RA SCT008 OVC012 00/00 A3021 RMK AO2 P0002 T00020000
 
KPNT - Pontiac, Illinois, USA
Distance from station: E 53mi, 85km
Updated: 02/20/2018 11:15pm
Light snow, Overcast
Light snow, Overcast
 Wind from NNW
Wind: NNW 12 mph , 19 km/h
Temperature: 32°F , 0°C
Wind Chill: 23°F , -5°C
Dew Point: 32°F , 0°C
Humidity: 100%
Barometer: 30.19 inHg , 1022.4 hPa
Summary: Light Snow
Clouds: Overcast
Visibility: 4 miles , 6 km
Cloud details: Overcast 900 ft
2018/02/21 05:15 KPNT 210515Z AUTO 33010KT 4SM -SN OVC009 00/00 A3019 RMK AO2 P0003 T00010000
KMQB - Macomb Muni, Illinois, USA
Distance from station: WSW 58mi, 93km
Updated: 02/20/2018 11:10pm
Overcast
Overcast
 Wind from NNW
Wind: NNW 10 mph , 17 km/h
Temperature: 27°F , -3°C
Wind Chill: 18°F , -8°C
Dew Point: 25°F , -4°C
Humidity: 93%
Barometer: 30.25 inHg , 1024.4 hPa
Clouds: Overcast
Visibility: 10 miles , 16 km
Cloud details: Overcast 1700 ft
2018/02/21 05:10 KMQB 210510Z AUTO 34009KT 10SM OVC017 M03/M04 A3025 RMK AO2 T10281043
 
KMLI - Moline/Quad City, Illinois, USA
Distance from station: NW 64mi, 103km
Updated: 02/20/2018 10:52pm
Partly cloudy
Partly cloudy
 Wind from NW
Wind: NW 15 mph , 24 km/h
Temperature: 27°F , -3°C
Wind Chill: 15°F , -9°C
Dew Point: 19°F , -7°C
Humidity: 74%
Barometer: 30.25 inHg , 1024.4 hPa
Clouds: Partly cloudy
Visibility: 10 miles , 16 km
Cloud details: Partly cloudy 2000 ft
2018/02/21 04:52 KMLI 210452Z AUTO 31013KT 10SM SCT020 M03/M07 A3025 RMK AO2 SLP250 T10331072
KSQI - Sterling Rockfal, Illinois, USA
Distance from station: N 64mi, 103km
Updated: 02/20/2018 10:56pm

 
Visibility: 10 miles , 16 km
2018/02/21 04:56 KSQI 210456Z AUTO 10SM RMK AO2 SLPNO FZRANO $
 
KSPI - Springfield, Illinois, USA
Distance from station: S 67mi, 108km
Updated: 02/20/2018 11:09pm
Light freezing, Rain, Overcast
Light freezing, Rain, Overcast
 Wind from NNW
Wind: NNW 10 mph , 17 km/h
Temperature: 34°F , 1°C
Wind Chill: 26°F , -3°C
Dew Point: 30°F , -1°C
Humidity: 87%
Barometer: 30.23 inHg , 1023.7 hPa
Summary: Light freezing, Rain
Clouds: Overcast
Visibility: 7 miles , 11 km
Cloud details: Overcast 1000 ft
2018/02/21 05:09 KSPI 210509Z AUTO 34009KT 7SM -FZRA OVC010 01/M01 A3023 RMK AO2 CIG 007V013 P0003 I1001 T00061011
KDVN - Davenport/Quad C, Iowa, USA
Distance from station: NW 74mi, 120km
Updated: 02/20/2018 10:52pm
Partly cloudy
Partly cloudy
 Wind from NW
Wind: NW 17 mph , 28 km/h
Temperature: 25°F , -4°C
Wind Chill: 12°F , -11°C
Dew Point: 18°F , -8°C
Humidity: 74%
Barometer: 30.26 inHg , 1024.7 hPa
Clouds: Partly cloudy
Visibility: 10 miles , 16 km
Cloud details: Partly cloudy 1800 ft
2018/02/21 04:52 KDVN 210452Z AUTO 31015KT 10SM SCT018 M04/M08 A3026 RMK AO2 SLP253 T10391078